createdAt,value
2017-11-20T00:00:18.989Z,44.28
2017-11-20T00:02:44.809Z,44.57
2017-11-20T00:05:11.406Z,44.27
2017-11-20T00:07:37.199Z,44.53
2017-11-20T00:10:02.986Z,44.77
2017-11-20T00:12:28.764Z,44.42
2017-11-20T00:14:54.585Z,44.70
2017-11-20T00:17:20.368Z,44.46
2017-11-20T00:19:46.152Z,44.78
2017-11-20T00:22:12.920Z,44.46
2017-11-20T00:24:38.748Z,45.27
2017-11-20T00:27:04.530Z,45.27
2017-11-20T00:29:30.329Z,44.52
2017-11-20T00:31:56.123Z,44.27
2017-11-20T00:34:21.901Z,44.28
2017-11-20T00:36:47.687Z,44.56
2017-11-20T00:39:13.480Z,44.12
2017-11-20T00:41:39.274Z,43.99
2017-11-20T00:44:11.897Z,43.75
2017-11-20T00:46:37.685Z,44.43
2017-11-20T00:49:03.460Z,44.30
2017-11-20T00:51:29.277Z,44.63
2017-11-20T00:53:55.055Z,44.32
2017-11-20T00:56:20.846Z,45.10
2017-11-20T00:58:46.636Z,44.46
2017-11-20T01:01:13.417Z,44.67
2017-11-20T01:03:39.242Z,44.18
2017-11-20T01:06:05.031Z,44.13
2017-11-20T01:08:30.821Z,44.66
2017-11-20T01:10:56.645Z,44.27
2017-11-20T01:13:23.403Z,44.21
2017-11-20T01:15:49.227Z,44.17
2017-11-20T01:18:15.030Z,44.36
2017-11-20T01:20:41.742Z,44.27
2017-11-20T01:23:07.534Z,44.20
2017-11-20T01:25:33.924Z,44.22
2017-11-20T01:27:59.722Z,44.18
2017-11-20T01:30:25.508Z,44.46
2017-11-20T01:32:51.375Z,44.09
2017-11-20T01:35:18.085Z,44.80
2017-11-20T01:37:43.879Z,44.08
2017-11-20T01:40:10.647Z,44.31
2017-11-20T01:42:36.433Z,44.48
2017-11-20T01:45:03.208Z,44.19
2017-11-20T01:47:29.032Z,44.00
2017-11-20T01:49:55.693Z,44.56
2017-11-20T01:52:21.489Z,44.10
2017-11-20T01:54:47.837Z,43.86
2017-11-20T01:57:13.666Z,43.97
2017-11-20T01:59:39.463Z,43.88
2017-11-20T02:02:05.250Z,43.87
2017-11-20T02:04:31.046Z,43.99
2017-11-20T02:06:57.854Z,43.85
2017-11-20T02:09:24.585Z,43.90
2017-11-20T02:11:50.384Z,44.29
2017-11-20T02:14:17.151Z,43.92
2017-11-20T02:16:42.928Z,44.48
2017-11-20T02:19:08.759Z,44.22
2017-11-20T02:21:34.562Z,43.73
2017-11-20T02:24:00.402Z,43.84
2017-11-20T02:26:26.291Z,43.70
2017-11-20T02:28:52.090Z,44.61
2017-11-20T02:31:17.934Z,44.33
2017-11-20T02:33:43.729Z,43.72
2017-11-20T02:36:09.528Z,43.86
2017-11-20T02:38:35.331Z,43.64
2017-11-20T02:41:01.161Z,43.68
2017-11-20T02:43:26.951Z,43.95
2017-11-20T02:45:52.747Z,43.78
2017-11-20T02:48:18.547Z,43.58
2017-11-20T02:50:44.337Z,43.81
2017-11-20T02:53:10.169Z,43.68
2017-11-20T02:55:35.973Z,43.92
2017-11-20T02:58:01.797Z,43.79
2017-11-20T03:00:27.642Z,43.19
2017-11-20T03:02:53.449Z,43.30
2017-11-20T03:05:20.241Z,43.46
2017-11-20T03:07:46.033Z,43.94
2017-11-20T03:10:11.847Z,44.11
2017-11-20T03:12:37.645Z,43.87
2017-11-20T03:15:03.451Z,45.44
2017-11-20T03:17:29.251Z,43.72
2017-11-20T03:19:55.049Z,43.84
2017-11-20T03:22:20.855Z,43.90
2017-11-20T03:24:46.665Z,44.96
2017-11-20T03:27:12.501Z,43.45
2017-11-20T03:29:38.325Z,43.74
2017-11-20T03:32:04.128Z,43.85
2017-11-20T03:34:29.918Z,44.51
2017-11-20T03:36:55.717Z,43.83
2017-11-20T03:39:21.517Z,43.76
2017-11-20T03:41:47.309Z,43.64
2017-11-20T03:44:13.171Z,43.48
2017-11-20T03:46:39.003Z,43.29
2017-11-20T03:49:04.806Z,43.50
2017-11-20T03:51:31.523Z,43.60
2017-11-20T03:53:57.321Z,44.65
2017-11-20T03:56:23.125Z,44.52
2017-11-20T03:58:48.925Z,44.56
2017-11-20T04:01:21.793Z,43.98
2017-11-20T04:03:47.582Z,43.82
2017-11-20T04:06:13.386Z,43.63
2017-11-20T04:08:39.184Z,43.70
2017-11-20T04:11:04.987Z,43.70
2017-11-20T04:13:30.777Z,44.11
2017-11-20T04:15:56.576Z,44.27
2017-11-20T04:18:22.375Z,44.03
2017-11-20T04:20:48.181Z,43.90
2017-11-20T04:23:13.979Z,43.84
2017-11-20T04:25:39.770Z,43.94
2017-11-20T04:28:05.560Z,44.35
2017-11-20T04:30:31.409Z,44.04
2017-11-20T04:32:57.194Z,44.12
2017-11-20T04:35:23.025Z,44.14
2017-11-20T04:37:48.818Z,44.22
2017-11-20T04:40:14.605Z,44.06
2017-11-20T04:42:40.405Z,43.84
2017-11-20T04:45:06.206Z,43.62
2017-11-20T04:47:31.989Z,43.74
2017-11-20T04:49:57.785Z,45.48
2017-11-20T04:52:23.572Z,44.40
2017-11-20T04:54:49.364Z,45.85
2017-11-20T04:57:15.206Z,45.02
2017-11-20T04:59:41.006Z,44.39
2017-11-20T05:02:06.798Z,44.01
2017-11-20T05:04:32.581Z,44.17
2017-11-20T05:06:58.362Z,44.54
2017-11-20T05:09:24.161Z,43.99
2017-11-20T05:11:49.954Z,44.42
2017-11-20T05:14:15.750Z,44.63
2017-11-20T05:16:41.600Z,44.49
2017-11-20T05:19:07.392Z,44.73
2017-11-20T05:21:33.235Z,44.08
2017-11-20T05:23:59.017Z,44.14
2017-11-20T05:26:24.813Z,44.17
2017-11-20T05:28:50.627Z,44.20
2017-11-20T05:31:16.422Z,44.23
2017-11-20T05:33:42.229Z,44.47
2017-11-20T05:36:08.078Z,44.40
2017-11-20T05:38:33.873Z,44.35
2017-11-20T05:40:59.672Z,44.26
2017-11-20T05:43:25.460Z,44.20
2017-11-20T05:45:51.501Z,44.24
2017-11-20T05:48:17.293Z,44.76
2017-11-20T05:50:43.122Z,44.30
2017-11-20T05:53:08.949Z,44.21
2017-11-20T05:55:34.768Z,44.22
2017-11-20T05:58:00.594Z,44.39
2017-11-20T06:00:26.393Z,44.86
2017-11-20T06:02:52.325Z,44.54
2017-11-20T06:05:18.142Z,44.65
2017-11-20T06:07:43.943Z,44.23
2017-11-20T06:10:09.741Z,44.09
2017-11-20T06:12:35.545Z,44.66
2017-11-20T06:15:01.413Z,44.89
2017-11-20T06:17:27.212Z,44.46
2017-11-20T06:19:53.003Z,44.54
2017-11-20T06:22:18.813Z,44.38
2017-11-20T06:24:44.588Z,44.30
2017-11-20T06:27:10.397Z,44.57
2017-11-20T06:29:36.179Z,45.43
2017-11-20T06:32:02.005Z,45.09
2017-11-20T06:34:27.801Z,44.66
2017-11-20T06:36:53.616Z,44.37
2017-11-20T06:39:19.401Z,44.45
2017-11-20T06:41:45.198Z,44.68
2017-11-20T06:44:11.021Z,44.60
2017-11-20T06:46:36.808Z,44.59
2017-11-20T06:49:02.637Z,45.03
2017-11-20T06:51:28.464Z,44.53
2017-11-20T06:53:54.257Z,44.56
2017-11-20T06:56:20.033Z,44.84
2017-11-20T06:58:45.858Z,44.79
2017-11-20T07:01:11.661Z,44.64
2017-11-20T07:03:37.449Z,45.04
2017-11-20T07:06:03.228Z,44.91
2017-11-20T07:08:29.050Z,44.91
2017-11-20T07:10:54.861Z,44.69
2017-11-20T07:13:20.719Z,45.18
2017-11-20T07:15:46.513Z,44.81
2017-11-20T07:18:12.294Z,44.83
2017-11-20T07:20:38.086Z,44.99
2017-11-20T07:23:03.878Z,44.79
2017-11-20T07:25:35.697Z,45.33
2017-11-20T07:28:01.485Z,44.82
2017-11-20T07:30:33.509Z,44.94
2017-11-20T07:32:59.296Z,44.90
2017-11-20T07:35:25.132Z,45.58
2017-11-20T07:40:49.034Z,45.15
2017-11-20T07:43:14.822Z,44.70
2017-11-20T07:45:40.636Z,44.87
2017-11-20T07:48:06.415Z,44.74
2017-11-20T07:50:32.185Z,45.03
2017-11-20T07:52:57.963Z,45.03
2017-11-20T07:55:23.741Z,44.84
2017-11-20T07:57:49.553Z,44.82
2017-11-20T08:00:15.336Z,45.04
2017-11-20T08:02:41.117Z,44.77
2017-11-20T08:05:06.963Z,44.73
2017-11-20T08:07:32.748Z,46.13
2017-11-20T08:09:58.543Z,45.74
2017-11-20T08:12:24.356Z,44.70
2017-11-20T08:14:50.133Z,45.22
2017-11-20T08:17:15.961Z,45.43
2017-11-20T08:19:41.736Z,44.87
2017-11-20T08:22:07.607Z,45.70
2017-11-20T08:24:33.381Z,44.94
2017-11-20T08:26:59.165Z,45.78
2017-11-20T08:29:24.954Z,45.39
2017-11-20T08:31:50.751Z,45.15
2017-11-20T08:34:16.637Z,45.91
2017-11-20T08:36:42.423Z,45.18
2017-11-20T08:39:08.243Z,45.16
2017-11-20T08:41:34.030Z,45.48
2017-11-20T08:43:59.850Z,44.95
2017-11-20T08:46:25.625Z,45.06
2017-11-20T08:48:51.414Z,45.08
2017-11-20T08:51:17.197Z,45.36
2017-11-20T08:53:42.980Z,44.83
2017-11-20T08:56:08.767Z,44.93
2017-11-20T08:58:34.548Z,44.92
2017-11-20T09:01:00.329Z,44.97
2017-11-20T09:03:26.120Z,44.95
2017-11-20T09:05:51.902Z,44.96
2017-11-20T09:08:17.721Z,44.96
2017-11-20T09:10:43.522Z,45.00
2017-11-20T09:13:09.316Z,45.08
2017-11-20T09:15:35.097Z,44.96
2017-11-20T09:18:00.909Z,45.08
2017-11-20T09:20:26.756Z,44.77
2017-11-20T09:22:52.554Z,45.20
2017-11-20T09:25:18.338Z,45.04
2017-11-20T09:27:45.095Z,44.93
2017-11-20T09:30:10.881Z,44.87
2017-11-20T09:32:46.384Z,45.01
2017-11-20T09:35:12.413Z,45.24
2017-11-20T09:37:39.546Z,44.81
2017-11-20T09:40:05.501Z,44.98
2017-11-20T09:42:31.308Z,44.85
2017-11-20T09:44:57.094Z,45.31
2017-11-20T09:47:22.876Z,45.07
2017-11-20T09:49:48.693Z,45.04
2017-11-20T09:52:14.482Z,45.11
2017-11-20T09:54:40.320Z,45.05
2017-11-20T09:57:06.102Z,45.20
2017-11-20T09:59:31.929Z,45.08
2017-11-20T10:01:57.713Z,44.84
2017-11-20T10:04:23.508Z,45.76
2017-11-20T10:06:49.301Z,45.12
2017-11-20T10:09:15.089Z,45.08
2017-11-20T10:11:40.880Z,45.06
2017-11-20T10:14:06.686Z,45.13
2017-11-20T10:16:32.509Z,44.61
2017-11-20T10:18:58.298Z,45.17
2017-11-20T10:21:24.146Z,45.03
2017-11-20T10:23:49.936Z,46.95
2017-11-20T10:26:15.789Z,45.82
2017-11-20T10:28:41.608Z,44.99
2017-11-20T10:31:07.396Z,45.54
2017-11-20T10:33:33.221Z,44.97
2017-11-20T10:35:59.017Z,44.75
2017-11-20T10:38:24.797Z,45.98
2017-11-20T10:40:50.589Z,45.71
2017-11-20T10:43:16.381Z,45.74
2017-11-20T10:45:42.161Z,45.18
2017-11-20T10:48:07.951Z,45.20
2017-11-20T10:50:33.742Z,45.38
2017-11-20T10:52:59.532Z,45.36
2017-11-20T10:55:25.317Z,45.02
2017-11-20T10:58:05.611Z,45.02
2017-11-20T11:00:32.073Z,45.01
2017-11-20T11:02:57.912Z,45.05
2017-11-20T11:05:23.708Z,44.99
2017-11-20T11:07:49.523Z,45.39
2017-11-20T11:10:15.309Z,45.19
2017-11-20T11:12:41.201Z,45.82
2017-11-20T11:15:07.053Z,45.25
2017-11-20T11:17:32.874Z,45.99
2017-11-20T11:19:58.668Z,45.10
2017-11-20T11:22:24.470Z,44.93
2017-11-20T11:24:50.270Z,45.08
2017-11-20T11:27:16.061Z,44.93
2017-11-20T11:29:41.860Z,45.31
2017-11-20T11:32:07.709Z,45.31
2017-11-20T11:34:33.525Z,45.23
2017-11-20T11:36:59.626Z,45.09
2017-11-20T11:39:25.482Z,45.02
2017-11-20T17:38:39.758Z,46.95
2017-11-20T17:43:49.577Z,45.00
2017-11-20T17:46:15.452Z,44.92
2017-11-20T17:48:41.293Z,45.70
2017-11-20T17:51:07.079Z,45.12
2017-11-20T17:53:32.870Z,45.53
2017-11-20T17:55:58.645Z,45.08
2017-11-20T17:58:24.623Z,45.09
2017-11-20T18:00:50.445Z,45.18
2017-11-20T18:03:16.250Z,45.26
2017-11-20T18:05:42.058Z,45.46
2017-11-20T18:08:07.862Z,46.00
2017-11-20T18:10:33.655Z,45.32
2017-11-20T18:13:00.415Z,45.32
2017-11-20T18:15:26.240Z,45.06
2017-11-20T18:17:52.033Z,45.33
2017-11-20T18:20:17.855Z,45.25
2017-11-20T18:22:43.669Z,45.18
2017-11-20T18:25:09.644Z,45.29
2017-11-20T18:27:35.434Z,45.15
2017-11-20T18:30:01.231Z,45.54
2017-11-20T18:32:27.022Z,45.45
2017-11-20T18:34:52.815Z,45.29
2017-11-20T18:37:18.617Z,45.51
2017-11-20T18:39:44.410Z,45.58
2017-11-20T18:42:10.207Z,45.26
2017-11-20T18:44:35.988Z,45.40
2017-11-20T18:47:01.875Z,45.16
2017-11-20T18:49:27.803Z,45.01
2017-11-20T18:51:55.322Z,45.29
2017-11-20T18:54:21.164Z,45.18
2017-11-20T18:56:47.022Z,45.08
2017-11-20T18:59:12.810Z,45.45
2017-11-20T19:01:44.656Z,45.26
2017-11-20T19:04:17.737Z,45.12
2017-11-20T19:06:49.566Z,45.06
2017-11-20T19:09:15.374Z,45.21
2017-11-20T19:11:41.295Z,45.26
2017-11-20T19:14:07.111Z,45.58
2017-11-20T19:16:32.905Z,45.09
2017-11-20T19:18:58.684Z,45.22
2017-11-20T19:21:24.470Z,45.20
2017-11-20T19:23:50.270Z,45.45
2017-11-20T19:26:16.049Z,45.27
2017-11-20T19:28:41.838Z,45.63
2017-11-20T19:31:07.650Z,45.57
2017-11-20T19:33:33.437Z,45.65
2017-11-20T19:35:59.242Z,45.04
2017-11-20T19:38:25.025Z,45.21
2017-11-20T19:40:50.810Z,45.19
2017-11-20T19:43:16.625Z,45.32
2017-11-20T19:45:42.404Z,45.36
2017-11-20T19:48:08.227Z,45.10
2017-11-20T19:50:34.017Z,44.96
2017-11-20T19:52:59.809Z,44.96
2017-11-20T19:55:27.986Z,44.82
2017-11-20T19:57:53.980Z,44.68
2017-11-20T20:00:19.774Z,44.73
2017-11-20T20:02:45.608Z,44.63
2017-11-20T20:05:11.504Z,45.02
2017-11-20T20:07:37.441Z,44.87
2017-11-20T20:10:03.257Z,44.77
2017-11-20T20:12:29.162Z,45.00
2017-11-20T20:15:01.119Z,44.89
2017-11-20T20:17:27.049Z,44.92
2017-11-20T20:19:52.834Z,45.29
2017-11-20T20:22:18.810Z,44.80
2017-11-20T20:24:44.846Z,44.99
2017-11-20T20:27:10.636Z,44.89
2017-11-20T20:29:36.417Z,44.89
2017-11-20T20:32:02.322Z,44.85
2017-11-20T20:34:28.105Z,45.07
2017-11-20T20:36:54.066Z,44.90
2017-11-20T20:39:20.674Z,44.88
2017-11-20T20:41:48.299Z,45.05
2017-11-20T20:44:14.158Z,44.93
2017-11-20T20:46:39.944Z,45.08
2017-11-20T20:49:05.884Z,45.05
2017-11-20T20:51:31.674Z,44.91
2017-11-20T20:53:57.458Z,44.98
2017-11-20T20:56:23.255Z,44.94
2017-11-20T20:58:49.037Z,44.98
2017-11-20T21:01:14.822Z,45.23
2017-11-20T21:03:40.653Z,45.14
2017-11-20T21:06:06.436Z,45.15
2017-11-20T21:08:32.225Z,45.17
2017-11-20T21:11:04.023Z,45.06
2017-11-20T21:13:29.819Z,45.12
2017-11-20T21:15:55.614Z,45.04
2017-11-20T21:18:21.414Z,45.06
2017-11-20T21:20:47.215Z,45.26
2017-11-20T21:23:13.033Z,45.28
2017-11-20T21:25:38.838Z,45.29
2017-11-20T21:28:04.621Z,45.03
2017-11-20T21:30:30.403Z,45.09
2017-11-20T21:32:56.184Z,45.25
2017-11-20T21:35:22.018Z,45.15
2017-11-20T21:37:47.809Z,45.30
2017-11-20T21:40:13.599Z,45.10
2017-11-20T21:42:39.394Z,45.24
2017-11-20T21:45:05.173Z,45.09
2017-11-20T21:47:30.949Z,45.24
2017-11-20T21:49:56.729Z,45.31
2017-11-20T21:52:22.545Z,45.26
2017-11-20T21:54:48.329Z,45.25
2017-11-20T21:57:14.141Z,45.14
2017-11-20T21:59:39.930Z,44.96
2017-11-20T22:02:05.718Z,45.15
2017-11-20T22:04:31.489Z,45.15
2017-11-20T22:06:57.434Z,45.46
2017-11-20T22:09:23.297Z,45.06
2017-11-20T22:11:49.081Z,45.11
2017-11-20T22:14:14.905Z,45.03
2017-11-20T22:16:40.698Z,45.52
2017-11-20T22:19:06.481Z,44.93
2017-11-20T22:21:32.264Z,44.91
2017-11-20T22:23:58.057Z,45.09
2017-11-20T22:26:23.895Z,45.09
2017-11-20T22:28:49.689Z,44.88
2017-11-20T22:31:15.489Z,44.91
2017-11-20T22:33:41.294Z,44.96
2017-11-20T22:36:07.097Z,45.00
2017-11-20T22:38:32.897Z,44.91
2017-11-20T22:40:58.707Z,44.79
2017-11-20T22:43:24.521Z,45.15
2017-11-20T22:45:50.317Z,44.97
2017-11-20T22:48:16.100Z,44.70
2017-11-20T22:50:41.900Z,44.93
2017-11-20T22:53:07.697Z,45.03
2017-11-20T22:55:33.509Z,45.15
2017-11-20T22:57:59.298Z,44.82
2017-11-20T23:00:25.093Z,44.80
2017-11-20T23:02:50.877Z,44.93
2017-11-20T23:05:16.658Z,44.83
2017-11-20T23:07:42.444Z,44.76
2017-11-20T23:10:08.233Z,44.83
2017-11-20T23:12:34.028Z,44.88
2017-11-20T23:14:59.825Z,44.90
2017-11-20T23:17:25.602Z,45.02
2017-11-20T23:19:51.418Z,44.90
2017-11-20T23:22:17.201Z,45.46
2017-11-20T23:24:43.045Z,44.92
2017-11-20T23:27:08.826Z,44.91
2017-11-20T23:29:34.616Z,44.80
2017-11-20T23:32:00.401Z,44.90
2017-11-20T23:34:26.188Z,44.92
2017-11-20T23:36:52.018Z,44.92
2017-11-20T23:39:17.802Z,44.77
2017-11-20T23:41:43.617Z,44.68
2017-11-20T23:44:09.401Z,44.89
2017-11-20T23:46:35.189Z,44.91
2017-11-20T23:49:00.981Z,44.83
2017-11-20T23:51:26.770Z,44.95
2017-11-20T23:53:52.560Z,45.13
2017-11-20T23:56:18.350Z,45.15
2017-11-20T23:58:44.131Z,44.78
